createdAt,value
2023-05-17T00:00:09.882Z,50.33
2023-05-17T00:02:12.045Z,50.71
2023-05-17T00:04:14.103Z,50.77
2023-05-17T00:06:16.219Z,50.63
2023-05-17T00:08:18.352Z,50.47
2023-05-17T00:10:20.433Z,50.88
2023-05-17T00:12:22.482Z,50.85
2023-05-17T00:14:24.496Z,50.85
2023-05-17T00:16:26.640Z,50.87
2023-05-17T00:18:28.837Z,51.08
2023-05-17T00:20:31.091Z,51.11
2023-05-17T00:22:33.138Z,51.16
2023-05-17T00:24:35.177Z,51.10
2023-05-17T00:26:37.231Z,51.49
2023-05-17T00:28:39.198Z,51.56
2023-05-17T00:30:41.894Z,51.36
2023-05-17T00:32:45.885Z,51.62
2023-05-17T00:34:48.102Z,51.65
2023-05-17T00:36:50.112Z,51.99
2023-05-17T00:38:52.155Z,51.98
2023-05-17T00:40:54.464Z,52.06
2023-05-17T00:42:56.518Z,52.27
2023-05-17T00:44:58.519Z,52.29
2023-05-17T00:47:00.494Z,52.14
2023-05-17T00:49:02.501Z,51.94
2023-05-17T00:51:04.778Z,52.20
2023-05-17T00:53:07.117Z,52.19
2023-05-17T00:55:09.629Z,52.37
2023-05-17T00:57:11.812Z,52.35
2023-05-17T00:59:14.565Z,52.25
2023-05-17T01:01:16.887Z,52.17
2023-05-17T01:03:19.315Z,52.75
2023-05-17T01:05:21.421Z,52.64
2023-05-17T01:07:23.714Z,52.44
2023-05-17T01:09:25.772Z,52.66
2023-05-17T01:11:34.040Z,52.67
2023-05-17T01:13:42.512Z,52.72
2023-05-17T01:15:53.745Z,53.07
2023-05-17T01:18:00.515Z,53.12
2023-05-17T01:20:12.874Z,53.13
2023-05-17T01:22:18.536Z,53.53
2023-05-17T01:24:22.282Z,53.16
2023-05-17T01:26:34.891Z,53.65
2023-05-17T01:28:39.158Z,53.53
2023-05-17T01:30:42.407Z,53.85
2023-05-17T01:32:45.605Z,53.96
2023-05-17T01:34:47.720Z,54.08
2023-05-17T01:36:49.779Z,53.95
2023-05-17T01:38:51.899Z,53.70
2023-05-17T01:41:00.197Z,54.04
2023-05-17T01:43:10.679Z,54.22
2023-05-17T01:45:19.587Z,54.37
2023-05-17T01:47:34.884Z,54.38
2023-05-17T01:49:40.427Z,54.65
2023-05-17T01:51:48.339Z,54.58
2023-05-17T01:53:58.484Z,54.82
2023-05-17T01:56:06.424Z,54.87
2023-05-17T01:58:11.070Z,54.84
2023-05-17T02:00:14.836Z,54.91
2023-05-17T02:02:16.947Z,54.57
2023-05-17T02:04:19.947Z,55.22
2023-05-17T02:06:22.049Z,54.90
2023-05-17T02:08:24.136Z,54.95
2023-05-17T02:10:26.137Z,54.88
2023-05-17T02:12:28.313Z,54.92
2023-05-17T02:14:30.315Z,55.31
2023-05-17T02:16:32.326Z,55.08
2023-05-17T02:18:36.087Z,55.27
2023-05-17T02:20:38.716Z,55.14
2023-05-17T02:22:40.929Z,55.11
2023-05-17T02:24:43.312Z,55.22
2023-05-17T02:26:46.330Z,55.26
2023-05-17T02:28:48.681Z,55.18
2023-05-17T02:30:51.281Z,55.35
2023-05-17T02:32:53.382Z,55.57
2023-05-17T02:34:56.014Z,55.52
2023-05-17T02:36:58.100Z,55.55
2023-05-17T02:39:00.137Z,55.35
2023-05-17T02:41:02.153Z,55.27
2023-05-17T02:43:04.142Z,55.52
2023-05-17T02:45:06.958Z,55.50
2023-05-17T02:47:09.028Z,55.83
2023-05-17T02:49:11.099Z,55.80
2023-05-17T02:51:13.155Z,55.78
2023-05-17T02:53:15.179Z,56.08
2023-05-17T02:55:17.258Z,55.89
2023-05-17T02:57:19.320Z,56.23
2023-05-17T02:59:21.353Z,56.24
2023-05-17T03:01:23.940Z,56.41
2023-05-17T03:03:26.099Z,56.20
2023-05-17T03:05:28.510Z,56.03
2023-05-17T03:07:30.953Z,55.80
2023-05-17T03:09:33.097Z,55.51
2023-05-17T03:11:35.121Z,56.17
2023-05-17T03:13:37.262Z,56.52
2023-05-17T03:15:39.332Z,56.23
2023-05-17T03:17:41.561Z,56.48
2023-05-17T03:19:43.689Z,56.47
2023-05-17T03:21:45.812Z,56.05
2023-05-17T03:23:48.251Z,56.54
2023-05-17T03:25:50.272Z,56.72
2023-05-17T03:27:52.356Z,56.42
2023-05-17T03:29:54.491Z,56.54
2023-05-17T03:31:56.524Z,56.37
2023-05-17T03:33:58.690Z,56.30
2023-05-17T03:36:00.969Z,56.46
2023-05-17T03:38:02.949Z,56.63
2023-05-17T03:40:05.683Z,56.42
2023-05-17T03:42:07.768Z,56.68
2023-05-17T03:44:09.889Z,56.91
2023-05-17T03:46:12.024Z,56.81
2023-05-17T03:48:14.034Z,56.98
2023-05-17T03:50:16.191Z,56.73
2023-05-17T03:52:18.176Z,56.92
2023-05-17T03:54:20.199Z,57.04
2023-05-17T03:56:22.373Z,57.21
2023-05-17T03:58:24.452Z,57.31
2023-05-17T04:00:26.547Z,57.32
2023-05-17T04:02:28.535Z,57.40
2023-05-17T04:04:30.955Z,57.49
2023-05-17T04:06:33.083Z,57.10
2023-05-17T04:08:36.197Z,57.11
2023-05-17T04:10:42.135Z,57.25
2023-05-17T04:12:44.243Z,57.21
2023-05-17T04:14:46.262Z,57.09
2023-05-17T04:16:48.301Z,57.17
2023-05-17T04:18:53.128Z,57.19
2023-05-17T04:20:56.353Z,57.20
2023-05-17T04:22:58.375Z,57.00
2023-05-17T04:25:00.513Z,57.28
2023-05-17T04:27:05.436Z,57.35
2023-05-17T04:29:07.580Z,57.65
2023-05-17T04:31:09.753Z,57.60
2023-05-17T04:33:14.083Z,57.28
2023-05-17T04:35:16.561Z,57.56
2023-05-17T04:37:18.537Z,57.59
2023-05-17T04:39:20.956Z,57.66
2023-05-17T04:41:22.913Z,57.98
2023-05-17T04:43:24.903Z,57.37
2023-05-17T04:45:27.707Z,57.61
2023-05-17T04:47:30.146Z,57.84
2023-05-17T04:49:32.326Z,57.80
2023-05-17T04:51:34.274Z,57.96
2023-05-17T04:53:36.314Z,57.92
2023-05-17T04:55:38.277Z,58.07
2023-05-17T04:57:40.414Z,58.33
2023-05-17T04:59:42.389Z,58.21
2023-05-17T05:01:44.353Z,58.55
2023-05-17T05:03:46.452Z,58.20
2023-05-17T05:05:48.673Z,58.21
2023-05-17T05:07:50.715Z,58.75
2023-05-17T05:09:52.698Z,58.42
2023-05-17T05:11:54.701Z,58.49
2023-05-17T05:13:56.673Z,58.70
2023-05-17T05:15:58.748Z,58.43
2023-05-17T05:18:00.966Z,58.45
2023-05-17T05:20:03.270Z,58.50
2023-05-17T05:22:05.659Z,58.68
2023-05-17T05:24:08.630Z,58.83
2023-05-17T05:26:10.706Z,58.49
2023-05-17T05:28:12.755Z,58.72
2023-05-17T05:30:22.227Z,58.43
2023-05-17T05:32:24.602Z,58.80
2023-05-17T05:34:28.732Z,58.86
2023-05-17T05:36:31.126Z,58.49
2023-05-17T05:38:33.143Z,58.54
2023-05-17T05:40:35.258Z,58.84
2023-05-17T05:42:37.573Z,58.66
2023-05-17T05:44:39.678Z,58.81
2023-05-17T05:46:41.686Z,58.62
2023-05-17T05:48:45.036Z,58.82
2023-05-17T05:50:47.127Z,59.04
2023-05-17T05:52:49.168Z,59.04
2023-05-17T05:54:51.235Z,58.69
2023-05-17T05:56:53.895Z,59.03
2023-05-17T05:58:57.850Z,59.12
2023-05-17T06:01:00.486Z,59.24
2023-05-17T06:03:02.691Z,59.23
2023-05-17T06:05:06.406Z,59.12
2023-05-17T06:07:08.604Z,59.13
2023-05-17T06:09:12.535Z,58.92
2023-05-17T06:11:15.056Z,58.85
2023-05-17T06:13:17.162Z,58.87
2023-05-17T06:15:19.284Z,59.18
2023-05-17T06:17:21.786Z,59.04
2023-05-17T06:19:24.124Z,59.16
2023-05-17T06:21:26.316Z,58.95
2023-05-17T06:23:28.481Z,58.82
2023-05-17T06:25:30.787Z,59.04
2023-05-17T06:27:34.020Z,58.93
2023-05-17T06:29:36.896Z,58.79
2023-05-17T06:31:39.145Z,58.51
2023-05-17T06:33:41.344Z,59.49
2023-05-17T06:35:55.313Z,59.27
2023-05-17T06:37:58.794Z,59.21
2023-05-17T06:40:15.047Z,58.96
2023-05-17T06:42:18.271Z,58.96
2023-05-17T06:44:20.548Z,58.80
2023-05-17T06:46:22.713Z,59.00
2023-05-17T06:48:24.976Z,58.76
2023-05-17T06:50:28.846Z,58.59
2023-05-17T06:52:31.328Z,58.69
2023-05-17T06:54:33.416Z,58.80
2023-05-17T06:56:35.699Z,58.74
2023-05-17T06:58:37.940Z,58.54
2023-05-17T07:00:40.080Z,58.58
2023-05-17T07:02:42.844Z,58.86
2023-05-17T07:04:45.151Z,58.57
2023-05-17T07:06:47.633Z,58.65
2023-05-17T07:08:49.900Z,58.54
2023-05-17T07:10:52.815Z,58.51
2023-05-17T07:12:55.062Z,58.59
2023-05-17T07:14:57.344Z,58.73
2023-05-17T07:16:59.764Z,58.60
2023-05-17T07:19:03.504Z,58.44
2023-05-17T07:21:05.749Z,58.09
2023-05-17T07:23:07.989Z,58.17
2023-05-17T07:25:10.969Z,58.43
2023-05-17T07:27:13.134Z,58.23
2023-05-17T07:29:15.449Z,58.13
2023-05-17T07:31:18.464Z,58.19
2023-05-17T07:33:20.754Z,58.04
2023-05-17T07:35:22.940Z,58.15
2023-05-17T07:37:25.350Z,58.30
2023-05-17T07:39:27.739Z,58.23
2023-05-17T07:41:30.032Z,58.41
2023-05-17T07:43:32.254Z,58.00
2023-05-17T07:45:34.617Z,58.30
2023-05-17T07:47:36.941Z,58.40
2023-05-17T07:49:39.656Z,58.29
2023-05-17T07:51:41.966Z,57.94
2023-05-17T07:53:44.344Z,57.51
2023-05-17T07:55:47.965Z,57.60
2023-05-17T07:57:54.917Z,57.42
2023-05-17T07:59:57.038Z,57.27
2023-05-17T08:01:59.161Z,57.22
2023-05-17T08:04:07.798Z,57.09
2023-05-17T08:06:10.002Z,56.74
2023-05-17T08:08:12.237Z,56.78
2023-05-17T08:10:14.623Z,56.44
2023-05-17T08:12:16.858Z,55.83
2023-05-17T08:14:23.392Z,56.04
2023-05-17T08:16:26.674Z,55.72
2023-05-17T08:18:29.046Z,55.60
2023-05-17T08:20:31.383Z,55.33
2023-05-17T08:22:33.524Z,55.11
2023-05-17T08:24:41.654Z,55.39
2023-05-17T08:26:43.860Z,55.78
2023-05-17T08:28:47.327Z,55.97
2023-05-17T08:30:49.808Z,55.55
2023-05-17T08:32:52.447Z,55.63
2023-05-17T08:34:55.227Z,55.29
2023-05-17T08:36:57.712Z,55.03
2023-05-17T08:39:00.019Z,55.00
2023-05-17T08:41:03.403Z,54.83
2023-05-17T08:43:06.844Z,54.48
2023-05-17T08:45:10.628Z,54.15
2023-05-17T08:47:14.848Z,54.48
2023-05-17T08:49:17.567Z,53.72
2023-05-17T08:51:21.121Z,53.41
2023-05-17T08:53:24.451Z,52.91
2023-05-17T08:55:30.929Z,52.92
2023-05-17T08:57:34.776Z,52.69
2023-05-17T08:59:39.599Z,52.66
2023-05-17T09:01:44.089Z,52.67
2023-05-17T09:03:49.923Z,52.68
2023-05-17T09:05:54.795Z,52.64
2023-05-17T09:07:58.152Z,52.41
2023-05-17T09:10:00.776Z,52.30
2023-05-17T09:12:04.580Z,51.40
2023-05-17T09:14:07.718Z,51.40
2023-05-17T09:16:13.930Z,50.78
2023-05-17T09:18:19.347Z,50.70
2023-05-17T09:20:25.160Z,50.03
2023-05-17T09:22:27.358Z,50.15
2023-05-17T09:24:58.776Z,49.67
2023-05-17T09:27:10.212Z,49.60
2023-05-17T09:29:18.585Z,48.81
2023-05-17T09:31:29.300Z,47.89
2023-05-17T09:33:31.185Z,48.87
2023-05-17T09:35:35.025Z,47.43
2023-05-17T09:37:47.025Z,46.63
2023-05-17T09:39:50.187Z,46.02
2023-05-17T09:41:57.909Z,46.09
2023-05-17T09:44:16.053Z,45.21
2023-05-17T09:46:20.588Z,45.14
2023-05-17T09:48:22.797Z,43.97
2023-05-17T09:50:26.259Z,44.17
2023-05-17T09:52:32.226Z,42.96
2023-05-17T09:55:01.743Z,42.38
2023-05-17T09:57:08.004Z,41.75
2023-05-17T09:59:13.316Z,41.83
2023-05-17T10:01:17.314Z,42.16
2023-05-17T10:03:19.986Z,42.38
2023-05-17T10:05:22.831Z,42.22
2023-05-17T10:07:28.041Z,42.16
2023-05-17T10:09:35.867Z,41.93
2023-05-17T10:11:39.548Z,41.65
2023-05-17T10:13:47.741Z,40.75
2023-05-17T10:15:51.062Z,40.79
2023-05-17T10:17:54.982Z,40.77
2023-05-17T10:19:59.333Z,40.67
2023-05-17T10:24:12.569Z,39.65
2023-05-17T10:26:16.487Z,40.17
2023-05-17T10:28:20.273Z,39.73
2023-05-17T10:30:23.155Z,39.32
2023-05-17T10:32:29.152Z,38.49
2023-05-17T10:34:32.261Z,39.47
2023-05-17T10:36:34.730Z,39.40
2023-05-17T10:38:42.650Z,38.56
2023-05-17T10:40:47.641Z,38.12
2023-05-17T10:42:53.308Z,37.18
2023-05-17T10:44:55.526Z,37.34
2023-05-17T10:47:00.525Z,38.01
2023-05-17T10:49:03.996Z,37.81
2023-05-17T10:51:07.747Z,37.80
2023-05-17T10:53:11.580Z,38.10
2023-05-17T10:55:13.998Z,38.66
2023-05-17T10:57:21.145Z,38.36
2023-05-17T10:59:27.121Z,37.40
2023-05-17T11:01:35.443Z,37.09
2023-05-17T11:03:40.322Z,37.01
2023-05-17T11:05:45.007Z,36.67
2023-05-17T11:07:49.823Z,36.71
2023-05-17T11:09:56.961Z,36.30
2023-05-17T11:12:05.686Z,36.18
2023-05-17T11:14:16.907Z,36.41
2023-05-17T11:16:22.973Z,36.14
2023-05-17T11:18:34.275Z,36.17
2023-05-17T11:20:39.047Z,35.91
2023-05-17T11:22:43.779Z,36.21
2023-05-17T11:24:51.508Z,35.81
2023-05-17T11:26:56.423Z,36.35
2023-05-17T11:29:03.090Z,36.50
2023-05-17T11:31:05.635Z,36.71
2023-05-17T11:33:20.612Z,37.17
2023-05-17T11:35:30.167Z,37.50
2023-05-17T11:37:32.828Z,37.86
2023-05-17T11:39:34.989Z,38.00
2023-05-17T11:41:41.815Z,38.33
2023-05-17T11:44:01.929Z,37.95
2023-05-17T11:46:06.977Z,37.80
2023-05-17T11:48:09.785Z,38.14
2023-05-17T11:50:14.827Z,38.30
2023-05-17T11:52:17.429Z,39.13
2023-05-17T11:54:23.708Z,38.13
2023-05-17T11:56:39.394Z,38.25
2023-05-17T11:58:45.765Z,38.63
2023-05-17T12:00:54.249Z,38.64
2023-05-17T12:02:56.387Z,39.36
2023-05-17T12:04:59.217Z,39.79
2023-05-17T12:07:01.855Z,40.17
2023-05-17T12:09:06.423Z,40.43
2023-05-17T12:11:12.711Z,40.07
2023-05-17T12:13:14.846Z,40.30
2023-05-17T12:15:19.650Z,40.54
2023-05-17T12:17:28.279Z,40.46
2023-05-17T12:19:32.933Z,40.00
2023-05-17T12:21:35.544Z,39.42
2023-05-17T12:23:42.028Z,40.01
2023-05-17T12:25:44.293Z,40.10
2023-05-17T12:27:47.001Z,39.93
2023-05-17T12:29:49.258Z,39.84
2023-05-17T12:31:54.123Z,39.42
2023-05-17T12:36:15.841Z,39.38
2023-05-17T12:38:19.959Z,39.32
2023-05-17T12:40:22.214Z,39.29
2023-05-17T12:42:24.459Z,39.38
2023-05-17T12:44:34.834Z,39.60
2023-05-17T12:46:37.377Z,39.35
2023-05-17T12:48:44.392Z,39.13
2023-05-17T12:50:49.284Z,38.46
2023-05-17T12:52:51.804Z,38.08
2023-05-17T12:54:54.007Z,38.24
2023-05-17T12:56:56.809Z,37.98
2023-05-17T12:59:05.159Z,38.01
2023-05-17T13:01:11.721Z,37.48
2023-05-17T13:03:15.022Z,37.89
2023-05-17T13:05:21.909Z,37.48
2023-05-17T13:07:25.577Z,37.28
2023-05-17T13:09:31.327Z,37.44
2023-05-17T13:11:41.299Z,36.54
2023-05-17T13:13:43.952Z,36.85
2023-05-17T13:15:48.127Z,36.73
2023-05-17T13:17:50.960Z,36.10
2023-05-17T13:19:54.506Z,35.84
2023-05-17T13:21:57.322Z,36.01
2023-05-17T13:24:17.251Z,36.44
2023-05-17T13:26:20.394Z,37.53
2023-05-17T13:28:23.088Z,37.86
2023-05-17T13:30:26.448Z,38.25
2023-05-17T13:32:29.231Z,38.81
2023-05-17T13:34:31.637Z,38.88
2023-05-17T13:36:34.444Z,38.87
2023-05-17T13:38:37.001Z,38.62
2023-05-17T13:40:39.642Z,38.93
2023-05-17T13:42:42.103Z,38.68
2023-05-17T13:44:44.675Z,38.24
2023-05-17T13:46:47.229Z,37.80
2023-05-17T13:48:49.959Z,37.60
2023-05-17T13:50:53.401Z,36.97
2023-05-17T13:52:55.621Z,36.22
2023-05-17T13:54:58.128Z,35.65
2023-05-17T13:57:00.870Z,35.80
2023-05-17T13:59:03.883Z,35.60
2023-05-17T14:01:12.196Z,34.99
2023-05-17T14:03:15.477Z,34.37
2023-05-17T14:05:18.607Z,34.11
2023-05-17T14:07:20.704Z,33.51
2023-05-17T14:09:23.656Z,33.52
2023-05-17T14:11:26.369Z,32.56
2023-05-17T14:13:28.770Z,32.31
2023-05-17T14:15:31.573Z,31.30
2023-05-17T14:17:34.156Z,31.21
2023-05-17T14:19:36.951Z,30.97
2023-05-17T14:21:39.524Z,32.06
2023-05-17T14:23:41.916Z,32.91
2023-05-17T14:25:44.566Z,33.69
2023-05-17T14:27:47.566Z,34.12
2023-05-17T14:29:50.192Z,35.18
2023-05-17T14:31:52.940Z,34.96
2023-05-17T14:33:55.335Z,35.61
2023-05-17T14:35:58.191Z,36.01
2023-05-17T14:38:00.586Z,35.75
2023-05-17T14:40:06.428Z,36.41
2023-05-17T14:42:09.619Z,36.23
2023-05-17T14:44:13.468Z,37.04
2023-05-17T14:46:16.527Z,37.08
2023-05-17T14:48:19.319Z,35.51
2023-05-17T14:50:22.251Z,36.00
2023-05-17T14:52:25.067Z,35.83
2023-05-17T14:54:32.484Z,35.35
2023-05-17T14:56:35.145Z,35.27
2023-05-17T14:58:38.325Z,35.36
2023-05-17T15:00:42.172Z,35.28
2023-05-17T15:02:44.975Z,35.83
2023-05-17T15:04:47.957Z,34.67
2023-05-17T15:06:51.551Z,33.97
2023-05-17T15:08:55.209Z,32.68
2023-05-17T15:10:58.580Z,32.91
2023-05-17T15:13:00.926Z,32.62
2023-05-17T15:15:03.660Z,32.00
2023-05-17T15:17:06.499Z,31.64
2023-05-17T15:19:09.145Z,31.04
2023-05-17T15:21:12.091Z,30.25
2023-05-17T15:23:14.831Z,31.33
2023-05-17T15:25:17.686Z,30.86
2023-05-17T15:27:20.109Z,31.29
2023-05-17T15:29:22.839Z,31.90
2023-05-17T15:31:25.718Z,32.24
2023-05-17T15:33:28.681Z,31.97
2023-05-17T15:35:31.837Z,32.38
2023-05-17T15:37:34.490Z,32.97
2023-05-17T15:39:37.146Z,34.04
2023-05-17T15:41:40.856Z,34.12
2023-05-17T15:43:43.900Z,35.31
2023-05-17T15:45:46.870Z,35.84
2023-05-17T15:47:50.372Z,36.11
2023-05-17T15:49:53.453Z,36.14
2023-05-17T15:51:59.598Z,36.64
2023-05-17T15:54:02.670Z,36.63
2023-05-17T15:56:05.450Z,36.76
2023-05-17T15:58:10.038Z,37.20
2023-05-17T16:00:25.643Z,37.68
2023-05-17T16:02:28.833Z,38.11
2023-05-17T16:04:31.714Z,40.48
2023-05-17T16:06:36.490Z,41.18
2023-05-17T16:08:39.561Z,42.63
2023-05-17T16:10:42.432Z,43.68
2023-05-17T16:12:45.199Z,44.55
2023-05-17T16:14:48.342Z,45.04
2023-05-17T16:16:53.917Z,45.49
2023-05-17T16:18:58.953Z,45.27
2023-05-17T16:21:04.280Z,45.12
2023-05-17T16:23:07.398Z,44.81
2023-05-17T16:25:09.921Z,44.55
2023-05-17T16:27:13.064Z,45.26
2023-05-17T16:29:17.610Z,45.08
2023-05-17T16:31:21.106Z,44.87
2023-05-17T16:33:24.104Z,45.48
2023-05-17T16:35:28.139Z,45.38
2023-05-17T16:37:31.305Z,45.03
2023-05-17T16:39:33.929Z,44.85
2023-05-17T16:41:38.111Z,44.96
2023-05-17T16:43:40.886Z,45.43
2023-05-17T16:45:45.549Z,46.48
2023-05-17T16:47:48.322Z,46.50
2023-05-17T16:49:51.872Z,45.93
2023-05-17T16:51:55.659Z,45.76
2023-05-17T16:54:00.453Z,46.18
2023-05-17T16:56:03.229Z,46.32
2023-05-17T16:58:06.701Z,46.40
2023-05-17T17:00:10.851Z,46.35
2023-05-17T17:02:13.738Z,46.39
2023-05-17T17:04:21.514Z,46.54
2023-05-17T17:06:24.193Z,46.61
2023-05-17T17:08:27.377Z,46.59
2023-05-17T17:10:39.766Z,46.94
2023-05-17T17:12:42.826Z,47.34
2023-05-17T17:14:59.638Z,46.95
2023-05-17T17:17:20.277Z,47.17
2023-05-17T17:19:38.435Z,47.44
2023-05-17T17:21:43.314Z,47.16
2023-05-17T17:24:15.214Z,48.03
2023-05-17T17:26:24.382Z,47.69
2023-05-17T17:28:27.524Z,47.57
2023-05-17T17:30:42.352Z,47.81
2023-05-17T17:32:45.120Z,48.05
2023-05-17T17:34:48.157Z,48.22
2023-05-17T17:36:51.380Z,48.81
2023-05-17T17:38:53.136Z,48.68
2023-05-17T17:40:55.829Z,49.54
2023-05-17T17:42:58.571Z,49.35
2023-05-17T17:45:17.851Z,49.19
2023-05-17T17:47:30.406Z,48.98
2023-05-17T17:49:33.703Z,49.40
2023-05-17T17:51:36.419Z,49.63
2023-05-17T17:53:49.178Z,49.27
2023-05-17T17:55:52.079Z,50.81
2023-05-17T17:57:54.698Z,50.77
2023-05-17T17:59:58.474Z,50.76
2023-05-17T18:02:01.757Z,50.78
2023-05-17T18:04:06.552Z,51.24
2023-05-17T18:06:08.927Z,51.41
2023-05-17T18:08:11.159Z,51.92
2023-05-17T18:10:13.808Z,51.84
2023-05-17T18:12:16.801Z,51.92
2023-05-17T18:14:19.986Z,52.07
2023-05-17T18:16:22.335Z,51.65
2023-05-17T18:18:24.862Z,52.45
2023-05-17T18:20:27.627Z,52.62
2023-05-17T18:22:30.386Z,53.68
2023-05-17T18:24:32.914Z,53.37
2023-05-17T18:26:35.588Z,53.67
2023-05-17T18:28:42.262Z,53.32
2023-05-17T18:30:45.546Z,53.66
2023-05-17T18:32:47.936Z,53.18
2023-05-17T18:34:50.214Z,53.20
2023-05-17T18:36:52.377Z,52.76
2023-05-17T18:38:58.766Z,52.62
2023-05-17T18:41:01.179Z,52.37
2023-05-17T18:43:03.412Z,52.44
2023-05-17T18:45:06.855Z,52.44
2023-05-17T18:47:09.234Z,52.38
2023-05-17T18:49:12.681Z,52.92
2023-05-17T18:51:16.227Z,52.78
2023-05-17T18:53:18.777Z,53.40
2023-05-17T18:55:21.740Z,53.54
2023-05-17T18:57:24.234Z,55.44
2023-05-17T18:59:26.692Z,55.19
2023-05-17T19:01:29.449Z,55.38
2023-05-17T19:03:32.221Z,54.83
2023-05-17T19:05:34.499Z,55.30
2023-05-17T19:07:36.947Z,54.63
2023-05-17T19:09:39.106Z,54.36
2023-05-17T19:11:41.494Z,55.21
2023-05-17T19:13:44.225Z,54.21
2023-05-17T19:15:46.488Z,53.96
2023-05-17T19:17:48.828Z,54.01
2023-05-17T19:19:51.333Z,53.76
2023-05-17T19:21:53.894Z,53.35
2023-05-17T19:23:58.640Z,53.29
2023-05-17T19:26:01.022Z,53.15
2023-05-17T19:28:03.439Z,53.41
2023-05-17T19:30:07.903Z,53.07
2023-05-17T19:32:10.264Z,53.42
2023-05-17T19:34:12.729Z,53.25
2023-05-17T19:36:15.224Z,53.37
2023-05-17T19:38:18.362Z,52.97
2023-05-17T19:40:22.494Z,52.71
2023-05-17T19:42:25.128Z,53.01
2023-05-17T19:44:27.415Z,52.97
2023-05-17T19:46:29.646Z,52.82
2023-05-17T19:48:42.622Z,52.81
2023-05-17T19:50:44.847Z,53.05
2023-05-17T19:52:47.756Z,52.97
2023-05-17T19:54:50.032Z,53.18
2023-05-17T19:56:52.205Z,53.69
2023-05-17T19:58:54.483Z,53.85
2023-05-17T20:00:56.847Z,54.13
2023-05-17T20:02:59.199Z,54.45
2023-05-17T20:05:03.830Z,54.83
2023-05-17T20:07:06.396Z,55.09
2023-05-17T20:09:08.596Z,55.23
2023-05-17T20:11:11.565Z,54.80
2023-05-17T20:13:13.857Z,54.82
2023-05-17T20:15:16.503Z,54.82
2023-05-17T20:17:19.908Z,54.49
2023-05-17T20:19:22.220Z,54.47
2023-05-17T20:21:26.698Z,54.57
2023-05-17T20:23:29.039Z,54.42
2023-05-17T20:25:31.410Z,54.59
2023-05-17T20:27:33.757Z,54.95
2023-05-17T20:29:36.340Z,55.51
2023-05-17T20:31:38.860Z,55.39
2023-05-17T20:33:41.567Z,55.54
2023-05-17T20:35:43.964Z,55.79
2023-05-17T20:37:46.138Z,56.24
2023-05-17T20:39:48.430Z,56.03
2023-05-17T20:41:50.661Z,55.76
2023-05-17T20:43:53.543Z,56.26
2023-05-17T20:45:55.915Z,56.08
2023-05-17T20:47:58.249Z,56.30
2023-05-17T20:50:00.547Z,55.45
2023-05-17T20:52:03.620Z,55.41
2023-05-17T20:54:06.537Z,55.45
2023-05-17T20:56:08.804Z,56.35
2023-05-17T20:58:11.579Z,56.06
2023-05-17T21:00:17.343Z,56.00
2023-05-17T21:02:20.112Z,56.11
2023-05-17T21:04:22.457Z,55.67
2023-05-17T21:06:27.413Z,55.85
2023-05-17T21:08:29.570Z,55.48
2023-05-17T21:10:32.121Z,56.13
2023-05-17T21:12:35.803Z,56.05
2023-05-17T21:14:38.000Z,56.35
2023-05-17T21:16:40.312Z,56.38
2023-05-17T21:18:45.049Z,55.50
2023-05-17T21:20:47.752Z,55.37
2023-05-17T21:22:49.971Z,55.97
2023-05-17T21:24:52.878Z,56.24
2023-05-17T21:26:55.231Z,56.29
2023-05-17T21:28:57.404Z,56.01
2023-05-17T21:30:59.886Z,55.64
2023-05-17T21:33:02.439Z,55.70
2023-05-17T21:35:05.032Z,55.66
2023-05-17T21:37:07.162Z,55.91
2023-05-17T21:39:09.319Z,56.03
2023-05-17T21:41:11.568Z,57.00
2023-05-17T21:43:13.631Z,56.91
2023-05-17T21:45:15.691Z,57.25
2023-05-17T21:47:20.724Z,56.94
2023-05-17T21:49:22.928Z,56.71
2023-05-17T21:51:25.092Z,57.07
2023-05-17T21:53:27.228Z,56.86
2023-05-17T21:55:40.837Z,56.79
2023-05-17T21:57:51.351Z,56.87
2023-05-17T21:59:53.562Z,56.53
2023-05-17T22:01:55.814Z,56.80
2023-05-17T22:04:01.305Z,57.02
2023-05-17T22:06:04.301Z,56.60
2023-05-17T22:08:06.553Z,56.86
2023-05-17T22:10:10.024Z,56.71
2023-05-17T22:12:12.467Z,57.01
2023-05-17T22:14:14.576Z,56.80
2023-05-17T22:16:17.188Z,56.98
2023-05-17T22:18:19.641Z,56.89
2023-05-17T22:20:23.994Z,57.79
2023-05-17T22:22:27.005Z,57.42
2023-05-17T22:24:29.181Z,57.64
2023-05-17T22:26:31.489Z,58.42
2023-05-17T22:28:34.035Z,58.38
2023-05-17T22:30:36.459Z,58.81
2023-05-17T22:32:38.726Z,59.13
2023-05-17T22:34:41.293Z,58.90
2023-05-17T22:36:43.648Z,59.73
2023-05-17T22:38:46.545Z,59.71
2023-05-17T22:40:48.538Z,59.04
2023-05-17T22:42:52.094Z,58.58
2023-05-17T22:44:54.121Z,58.51
2023-05-17T22:46:57.895Z,58.70
2023-05-17T22:48:59.994Z,59.10
2023-05-17T22:51:02.334Z,59.14
2023-05-17T22:53:06.126Z,59.10
2023-05-17T22:55:09.294Z,58.62
2023-05-17T22:57:11.636Z,58.21
2023-05-17T22:59:13.727Z,57.68
2023-05-17T23:01:15.933Z,57.43
2023-05-17T23:03:19.713Z,57.65
2023-05-17T23:05:22.407Z,57.31
2023-05-17T23:07:24.478Z,57.31
2023-05-17T23:09:27.470Z,57.15
2023-05-17T23:11:30.078Z,57.47
2023-05-17T23:13:32.164Z,57.36
2023-05-17T23:15:34.597Z,57.64
2023-05-17T23:17:36.790Z,57.31
2023-05-17T23:19:40.689Z,57.03
2023-05-17T23:21:43.444Z,56.90
2023-05-17T23:23:45.530Z,56.93
2023-05-17T23:25:48.796Z,56.76
2023-05-17T23:27:51.065Z,56.72
2023-05-17T23:29:54.266Z,56.53
2023-05-17T23:31:56.423Z,56.83
2023-05-17T23:33:58.446Z,56.93
2023-05-17T23:36:00.704Z,56.71
2023-05-17T23:38:04.378Z,56.68
2023-05-17T23:40:07.684Z,56.79
2023-05-17T23:42:10.503Z,56.63
2023-05-17T23:44:12.640Z,56.60
2023-05-17T23:46:20.042Z,55.86
2023-05-17T23:48:25.762Z,56.12
2023-05-17T23:50:27.799Z,56.63
2023-05-17T23:52:32.941Z,57.31
2023-05-17T23:54:35.015Z,57.37
2023-05-17T23:56:37.165Z,57.34
2023-05-17T23:58:39.155Z,57.12
